Time;durP1;ratioP1;P1;durP2;ratioP2;P2;SDS_P1;SDS_P2;PMS_P1;PMS_P2;Temp;Humidity;BMP_temperature;BMP_pressure;BME280_temperature;BME280_humidity;BME280_pressure;Samples;Min_cycle;Max_cycle;Signal;HPM_P1;HPM_P2
2023/02/12 00:02:20;;;;;;;45.78;38.90;;;26.70;92.10;;;;;;1841278;77;21164;-82
2023/02/12 00:04:50;;;;;;;44.40;38.10;;;26.70;92.30;;;;;;1841235;78;21074;-82
2023/02/12 00:07:21;;;;;;;46.18;38.83;;;26.70;92.20;;;;;;1841308;77;21094;-82
2023/02/12 00:09:52;;;;;;;53.15;39.53;;;26.80;92.20;;;;;;1841312;78;21095;-82
2023/02/12 00:12:23;;;;;;;53.68;42.53;;;26.80;92.20;;;;;;1841167;77;21078;-82
2023/02/12 00:14:53;;;;;;;52.05;41.92;;;26.80;92.30;;;;;;1841325;78;21152;-82
2023/02/12 00:17:24;;;;;;;50.23;42.13;;;26.70;92.40;;;;;;1841217;78;21094;-83
2023/02/12 00:19:55;;;;;;;53.95;40.80;;;26.70;92.50;;;;;;1841269;78;21102;-83
2023/02/12 00:22:26;;;;;;;51.68;42.30;;;26.70;92.60;;;;;;1841314;78;21148;-84
2023/02/12 00:24:57;;;;;;;49.08;41.60;;;26.70;92.60;;;;;;1841088;77;21537;-83
2023/02/12 00:27:28;;;;;;;53.13;42.35;;;26.70;92.60;;;;;;1841082;78;21203;-83
2023/02/12 00:29:59;;;;;;;52.78;42.48;;;26.70;92.70;;;;;;1841181;78;21236;-84
2023/02/12 00:32:31;;;;;;;51.77;42.10;;;26.70;92.70;;;;;;1841001;77;21198;-83
2023/02/12 00:35:01;;;;;;;52.45;42.90;;;26.70;92.60;;;;;;1841148;77;21624;-83
2023/02/12 00:37:32;;;;;;;49.03;41.83;;;26.70;92.60;;;;;;1841051;78;21553;-83
2023/02/12 00:40:03;;;;;;;62.30;44.77;;;26.80;92.70;;;;;;1841281;78;21148;-83
2023/02/12 00:42:34;;;;;;;57.85;46.28;;;26.80;92.60;;;;;;1841177;78;21098;-81
2023/02/12 00:45:05;;;;;;;65.00;48.35;;;26.80;92.50;;;;;;1841072;78;21422;-82
2023/02/12 00:47:36;;;;;;;61.35;49.48;;;26.80;92.60;;;;;;1841164;78;21160;-82
2023/02/12 00:50:08;;;;;;;62.90;51.10;;;26.80;92.50;;;;;;1841043;77;21091;-82
2023/02/12 00:52:39;;;;;;;60.52;48.78;;;26.80;92.40;;;;;;1841444;77;21142;-83
2023/02/12 00:55:10;;;;;;;58.00;48.17;;;26.90;92.40;;;;;;1841139;78;21156;-83
2023/02/12 00:57:40;;;;;;;58.48;47.13;;;26.90;92.20;;;;;;1841083;78;22287;-82
2023/02/12 01:00:12;;;;;;;73.42;49.88;;;27.00;92.20;;;;;;1841088;78;21153;-82
2023/02/12 01:02:43;;;;;;;55.43;46.00;;;27.00;92.20;;;;;;1841341;78;21145;-84
2023/02/12 01:05:14;;;;;;;57.88;46.83;;;27.00;92.00;;;;;;1841433;78;21106;-83
2023/02/12 01:07:46;;;;;;;60.98;47.38;;;27.10;92.00;;;;;;1841253;77;21074;-83
2023/02/12 01:10:17;;;;;;;61.90;46.68;;;27.10;91.90;;;;;;1841535;78;21083;-83
2023/02/12 01:12:49;;;;;;;54.77;45.35;;;27.10;91.90;;;;;;1841493;77;21228;-83
2023/02/12 01:15:20;;;;;;;56.85;46.50;;;27.20;91.90;;;;;;1841770;78;21157;-83
2023/02/12 01:17:52;;;;;;;55.35;46.02;;;27.20;91.70;;;;;;1841738;77;21082;-82
2023/02/12 01:20:26;;;;;;;59.63;46.88;;;27.20;91.90;;;;;;1841730;78;21140;-82
2023/02/12 01:22:57;;;;;;;60.38;43.80;;;27.20;92.00;;;;;;1841784;77;21130;-83
2023/02/12 01:25:28;;;;;;;53.42;44.98;;;27.30;91.90;;;;;;1841672;78;21090;-83
2023/02/12 01:27:58;;;;;;;49.10;42.05;;;27.30;91.80;;;;;;1841570;78;21122;-83
2023/02/12 01:30:29;;;;;;;54.27;42.13;;;27.40;91.70;;;;;;1841736;78;21219;-83
2023/02/12 01:33:00;;;;;;;49.55;40.78;;;27.50;91.70;;;;;;1841629;77;21627;-83
2023/02/12 01:35:31;;;;;;;53.65;41.60;;;27.60;91.60;;;;;;1841572;77;21554;-83
2023/02/12 01:38:01;;;;;;;47.03;39.90;;;27.70;91.30;;;;;;1841668;78;21119;-84
2023/02/12 01:40:32;;;;;;;45.03;40.12;;;27.70;91.30;;;;;;1844830;78;21075;-84
2023/02/12 01:43:03;;;;;;;49.48;39.27;;;27.80;91.10;;;;;;1845178;78;21094;-83
2023/02/12 01:45:43;;;;;;;50.67;39.48;;;27.90;91.30;;;;;;1845116;77;21090;-82
2023/02/12 01:48:16;;;;;;;48.20;39.67;;;27.90;91.20;;;;;;1843498;77;21141;-83
2023/02/12 01:50:49;;;;;;;46.88;39.98;;;28.00;91.20;;;;;;1841581;78;21106;-82
2023/02/12 01:53:22;;;;;;;48.45;38.50;;;28.00;91.10;;;;;;1841505;78;21086;-83
2023/02/12 01:55:55;;;;;;;42.95;37.00;;;28.10;90.90;;;;;;1841299;77;21613;-83
2023/02/12 01:58:29;;;;;;;45.52;38.17;;;28.10;90.80;;;;;;1841278;78;21066;-84
2023/02/12 02:01:02;;;;;;;50.25;37.45;;;28.10;90.80;;;;;;1841467;78;21118;-83
2023/02/12 02:03:35;;;;;;;46.60;38.73;;;28.20;90.70;;;;;;1841253;78;21070;-83
2023/02/12 02:06:20;;;;;;;42.13;35.98;;;28.20;90.70;;;;;;1841428;78;21153;-82
2023/02/12 02:08:51;;;;;;;44.20;36.28;;;28.30;90.60;;;;;;1841458;77;21067;-82
2023/02/12 02:17:19;;;;;;;43.68;37.38;;;28.40;90.00;;;;;;1841430;78;21118;-82
2023/02/12 02:19:52;;;;;;;40.83;36.50;;;28.50;90.00;;;;;;1841990;78;21208;-84
2023/02/12 02:22:45;;;;;;;47.20;37.48;;;28.60;89.80;;;;;;1851141;77;21067;-84
2023/02/12 02:25:33;;;;;;;44.10;36.98;;;28.70;89.90;;;;;;1834861;77;21153;-84
2023/02/12 02:28:24;;;;;;;45.23;36.48;;;28.70;89.40;;;;;;1842958;77;21139;-84
2023/02/12 02:31:07;;;;;;;43.73;37.58;;;28.70;89.30;;;;;;1851300;77;21064;-82
2023/02/12 02:33:46;;;;;;;41.58;35.68;;;28.80;88.40;;;;;;1755273;78;21123;-81
2023/02/12 02:36:34;;;;;;;46.70;37.80;;;28.90;88.20;;;;;;1835727;77;21099;-83
2023/02/12 02:39:28;;;;;;;49.98;38.70;;;29.00;88.50;;;;;;1881488;76;21084;-84
2023/02/12 02:42:16;;;;;;;42.05;37.42;;;29.00;88.20;;;;;;1868218;77;21088;-83
2023/02/12 02:44:55;;;;;;;41.65;36.40;;;29.10;88.10;;;;;;1881501;76;21063;-83
2023/02/12 02:47:28;;;;;;;43.35;36.73;;;29.20;87.40;;;;;;1882999;76;21537;-81
2023/02/12 02:50:02;;;;;;;42.55;37.70;;;29.30;87.00;;;;;;1880108;76;21136;-81
2023/02/12 02:52:46;;;;;;;46.90;39.75;;;29.30;86.80;;;;;;1883015;76;21101;-83
2023/02/12 02:55:20;;;;;;;49.33;39.58;;;29.40;86.80;;;;;;1884005;76;21612;-82
2023/02/12 02:57:54;;;;;;;44.85;37.78;;;29.40;86.70;;;;;;1879045;76;21614;-82
2023/02/12 03:00:34;;;;;;;46.70;37.45;;;29.50;86.10;;;;;;1854265;77;21158;-83
2023/02/12 03:03:07;;;;;;;43.05;36.88;;;29.60;85.80;;;;;;1854597;76;21147;-84
2023/02/12 03:05:46;;;;;;;45.33;37.75;;;29.70;85.10;;;;;;1854873;76;21150;-83
2023/02/12 03:08:23;;;;;;;44.00;36.65;;;29.70;85.20;;;;;;1824151;79;21135;-83
2023/02/12 03:10:56;;;;;;;41.60;35.73;;;29.80;85.00;;;;;;1858064;77;21102;-83
2023/02/12 03:13:30;;;;;;;42.30;34.88;;;29.90;84.10;;;;;;1840947;77;21140;-84
2023/02/12 03:16:06;;;;;;;40.45;33.45;;;30.00;83.70;;;;;;1866943;76;21069;-83
2023/02/12 03:18:45;;;;;;;39.98;33.88;;;30.10;83.80;;;;;;1868335;77;21069;-83
2023/02/12 03:21:18;;;;;;;37.83;32.03;;;30.10;84.40;;;;;;1868247;76;21465;-83
2023/02/12 03:23:54;;;;;;;40.90;33.30;;;30.20;82.30;;;;;;1868233;77;21136;-83
2023/02/12 03:26:36;;;;;;;41.35;32.67;;;30.40;82.00;;;;;;1868568;76;21080;-83
2023/02/12 03:29:07;;;;;;;37.15;32.63;;;30.40;81.70;;;;;;1867500;76;21516;-82
2023/02/12 03:31:53;;;;;;;39.78;31.73;;;30.60;81.50;;;;;;1868039;77;21084;-83
2023/02/12 03:34:50;;;;;;;37.95;31.90;;;30.70;81.00;;;;;;1863892;77;21847;-84
2023/02/12 03:37:33;;;;;;;36.70;31.10;;;30.80;80.80;;;;;;1883087;76;21095;-84
2023/02/12 03:40:18;;;;;;;38.78;32.30;;;31.00;80.40;;;;;;1884066;76;21084;-84
2023/02/12 03:42:57;;;;;;;34.30;30.05;;;31.10;79.70;;;;;;1884228;76;21116;-84
2023/02/12 03:45:36;;;;;;;40.90;31.33;;;31.10;78.90;;;;;;1885521;76;21092;-85
2023/02/12 03:48:31;;;;;;;34.33;30.30;;;31.20;79.00;;;;;;1874684;75;21074;-82
2023/02/12 03:51:23;;;;;;;33.83;28.90;;;31.30;79.10;;;;;;1840180;77;21621;-83
2023/02/12 03:53:57;;;;;;;30.95;27.60;;;31.40;78.60;;;;;;1837002;77;21071;-82
2023/02/12 03:56:31;;;;;;;;;;;31.50;78.20;;;;;;1868782;76;21073;-83
2023/02/12 03:59:03;;;;;;;30.55;23.67;;;;;;;;;;1860714;77;20194;-83
2023/02/12 04:01:35;;;;;;;30.70;25.45;;;31.70;73.90;;;;;;1864324;76;21094;-83
2023/02/12 04:04:08;;;;;;;22.48;18.75;;;31.90;75.60;;;;;;1819652;77;21178;-83
2023/02/12 04:06:39;;;;;;;28.77;21.73;;;32.00;72.60;;;;;;1824464;77;21139;-85
2023/02/12 04:09:12;;;;;;;37.40;23.73;;;32.10;73.00;;;;;;1813053;79;21084;-83
2023/02/12 04:12:00;;;;;;;25.27;21.95;;;32.20;72.30;;;;;;1834481;77;21095;-84
2023/02/12 04:15:03;;;;;;;29.92;21.97;;;32.30;72.80;;;;;;1886104;76;21135;-83
2023/02/12 04:18:03;;;;;;;25.65;19.30;;;32.40;72.30;;;;;;1818352;77;21104;-84
2023/02/12 04:20:52;;;;;;;23.50;20.27;;;32.40;71.70;;;;;;1831498;78;21586;-83
2023/02/12 04:23:34;;;;;;;25.80;21.75;;;32.60;72.20;;;;;;1819552;79;21087;-84
2023/02/12 04:26:08;;;;;;;32.83;22.22;;;32.70;97.40;;;;;;1825252;76;21186;-83
2023/02/12 04:28:41;;;;;;;28.35;21.42;;;32.80;71.40;;;;;;1844589;78;21100;-82
2023/02/12 04:31:35;;;;;;;25.85;21.15;;;32.90;69.50;;;;;;1882051;76;21072;-83
2023/02/12 04:34:11;;;;;;;26.40;21.60;;;32.90;69.50;;;;;;1860254;75;21068;-83
2023/02/12 04:36:50;;;;;;;24.92;20.90;;;33.00;70.00;;;;;;1818461;78;21162;-84
2023/02/12 04:39:24;;;;;;;29.72;21.20;;;33.10;67.80;;;;;;1808571;79;21108;-84
2023/02/12 04:41:56;;;;;;;22.55;19.67;;;33.20;67.60;;;;;;1840373;78;21161;-83
2023/02/12 04:44:30;;;;;;;24.47;20.57;;;33.30;66.90;;;;;;1840235;77;21099;-84
2023/02/12 04:47:01;;;;;;;25.68;19.40;;;33.30;67.90;;;;;;1821918;79;21076;-83
2023/02/12 04:49:32;;;;;;;21.40;18.50;;;33.30;67.20;;;;;;1812856;79;21100;-83
2023/02/12 04:52:03;;;;;;;24.47;17.62;;;33.40;66.20;;;;;;1871416;77;21532;-83
2023/02/12 04:54:35;;;;;;;24.12;18.23;;;33.50;66.30;;;;;;1868047;77;21185;-83
2023/02/12 04:57:05;;;;;;;23.27;19.70;;;33.60;65.00;;;;;;1863061;77;21064;-83
2023/02/12 04:59:36;;;;;;;21.12;16.35;;;33.50;65.70;;;;;;1822105;79;21102;-84
2023/02/12 05:02:07;;;;;;;18.75;15.45;;;33.60;64.10;;;;;;1826311;78;21107;-83
2023/02/12 05:04:37;;;;;;;22.07;16.75;;;33.70;65.70;;;;;;1832801;78;21147;-84
2023/02/12 05:07:08;;;;;;;20.12;17.05;;;33.80;64.00;;;;;;1800086;79;21795;-83
2023/02/12 05:09:39;;;;;;;25.40;17.40;;;33.90;64.10;;;;;;1828163;78;21653;-83
2023/02/12 05:12:10;;;;;;;18.27;16.07;;;34.00;64.90;;;;;;1810486;77;21658;-83
2023/02/12 05:14:41;;;;;;;20.95;18.27;;;34.10;64.10;;;;;;1792041;79;21146;-83
2023/02/12 05:17:11;;;;;;;19.23;16.82;;;34.20;63.20;;;;;;1856026;77;21538;-83
2023/02/12 05:19:42;;;;;;;20.37;17.00;;;34.30;62.50;;;;;;1857270;76;21616;-83
2023/02/12 05:22:13;;;;;;;19.45;17.37;;;34.30;61.50;;;;;;1850950;77;21087;-83
2023/02/12 05:24:44;;;;;;;18.92;16.93;;;34.30;61.90;;;;;;1850082;77;21551;-84
2023/02/12 05:27:15;;;;;;;18.73;16.23;;;34.30;61.90;;;;;;1850185;77;21563;-82
2023/02/12 05:29:46;;;;;;;19.85;16.45;;;34.20;61.20;;;;;;1848119;77;21134;-82
2023/02/12 05:32:16;;;;;;;17.77;15.90;;;34.10;60.30;;;;;;1833483;77;21159;-84
2023/02/12 05:34:47;;;;;;;17.15;13.75;;;34.10;61.70;;;;;;1811747;78;21101;-83
2023/02/12 05:37:18;;;;;;;18.32;15.75;;;34.10;58.20;;;;;;1859962;76;21108;-83
2023/02/12 05:39:50;;;;;;;17.20;15.28;;;34.20;58.30;;;;;;1827289;78;21095;-83
2023/02/12 05:42:21;;;;;;;17.77;15.83;;;34.30;58.70;;;;;;1886288;75;21085;-84
2023/02/12 05:44:52;;;;;;;19.35;15.70;;;34.40;59.50;;;;;;1881921;76;21516;-83
2023/02/12 05:47:22;;;;;;;18.35;14.83;;;34.40;58.20;;;;;;1876274;76;21500;-83
2023/02/12 05:49:53;;;;;;;15.95;14.28;;;34.40;59.20;;;;;;1863887;76;21158;-83
2023/02/12 05:52:24;;;;;;;18.73;16.73;;;34.40;58.70;;;;;;1847404;76;21109;-84
2023/02/12 05:54:54;;;;;;;18.70;15.58;;;34.30;59.80;;;;;;1875860;76;21088;-84
2023/02/12 05:57:25;;;;;;;17.80;15.50;;;34.10;58.50;;;;;;1875752;76;21142;-85
2023/02/12 05:59:56;;;;;;;20.17;15.55;;;34.00;59.60;;;;;;1876381;76;21089;-84
2023/02/12 06:02:27;;;;;;;20.72;15.43;;;33.90;59.30;;;;;;1876189;76;21100;-84
2023/02/12 06:04:58;;;;;;;16.37;14.73;;;33.80;60.00;;;;;;1855177;76;22203;-84
2023/02/12 06:07:29;;;;;;;20.05;15.15;;;33.70;60.50;;;;;;1823885;79;21108;-83
2023/02/12 06:10:00;;;;;;;17.40;14.75;;;33.70;59.50;;;;;;1818157;79;21227;-83
2023/02/12 06:12:30;;;;;;;17.85;15.23;;;33.60;59.70;;;;;;1832177;76;21155;-83
2023/02/12 06:15:01;;;;;;;20.00;16.75;;;33.60;60.70;;;;;;1881372;75;21056;-84
2023/02/12 06:17:33;;;;;;;17.95;14.87;;;33.60;60.80;;;;;;1878117;75;21095;-82
2023/02/12 06:20:05;;;;;;;20.48;14.25;;;33.60;60.90;;;;;;1872098;75;21087;-85
2023/02/12 06:22:37;;;;;;;20.30;15.40;;;33.70;60.70;;;;;;1883878;75;21631;-83
2023/02/12 06:25:09;;;;;;;16.25;13.25;;;33.80;60.20;;;;;;1868252;75;21657;-83
2023/02/12 06:27:41;;;;;;;17.85;15.95;;;34.00;59.60;;;;;;1863005;75;21071;-83
2023/02/12 06:30:13;;;;;;;19.60;13.80;;;34.20;60.30;;;;;;1861029;76;21162;-78
2023/02/12 06:32:49;;;;;;;18.85;14.03;;;34.40;58.20;;;;;;1864086;75;21083;-81
2023/02/12 06:35:22;;;;;;;15.43;12.73;;;34.50;58.60;;;;;;1882585;76;21121;-81
2023/02/12 06:37:53;;;;;;;15.25;13.38;;;34.60;57.60;;;;;;1866656;76;21097;-81
2023/02/12 06:40:24;;;;;;;13.98;12.50;;;34.80;56.80;;;;;;1795014;78;21192;-82
2023/02/12 06:42:58;;;;;;;20.02;13.88;;;34.80;55.70;;;;;;1785274;80;21171;-83
2023/02/12 06:45:29;;;;;;;17.02;13.08;;;35.00;54.70;;;;;;1821014;77;21162;-82
2023/02/12 06:48:00;;;;;;;16.17;13.95;;;35.00;55.30;;;;;;1820565;78;21199;-83
2023/02/12 06:50:35;;;;;;;17.60;13.32;;;35.10;56.00;;;;;;1767673;80;21183;-81
2023/02/12 06:53:05;;;;;;;13.83;12.50;;;35.10;55.20;;;;;;1805463;78;21152;-81
2023/02/12 06:55:36;;;;;;;16.65;13.80;;;35.10;55.30;;;;;;1809155;78;21599;-81
2023/02/12 06:58:07;;;;;;;17.42;12.85;;;35.10;55.30;;;;;;1784424;79;21071;-81
2023/02/12 07:00:38;;;;;;;15.75;13.08;;;35.10;55.70;;;;;;1796608;79;21162;-82
2023/02/12 07:03:09;;;;;;;13.95;12.35;;;35.20;56.60;;;;;;1807121;79;21571;-82
2023/02/12 07:05:43;;;;;;;17.90;12.80;;;35.20;55.50;;;;;;1806661;79;21097;-82
2023/02/12 07:08:15;;;;;;;18.70;14.98;;;35.30;55.90;;;;;;1807862;78;21181;-82
2023/02/12 07:10:49;;;;;;;21.33;12.65;;;35.30;55.10;;;;;;1799195;78;21830;-82
2023/02/12 07:13:19;;;;;;;15.58;12.40;;;35.30;55.10;;;;;;1808261;78;21153;-82
2023/02/12 07:15:50;;;;;;;15.83;12.25;;;35.20;54.70;;;;;;1798520;79;21172;-81
2023/02/12 07:18:21;;;;;;;15.70;13.10;;;35.10;55.10;;;;;;1830348;77;21648;-83
2023/02/12 07:20:52;;;;;;;17.27;11.57;;;35.10;55.30;;;;;;1827591;78;21197;-84
2023/02/12 07:23:22;;;;;;;14.58;11.18;;;35.00;54.90;;;;;;1827652;78;21099;-82
2023/02/12 07:25:57;;;;;;;13.80;11.25;;;35.00;53.90;;;;;;1824807;78;21233;-82
2023/02/12 07:28:32;;;;;;;13.08;10.98;;;35.00;54.40;;;;;;1822521;77;21223;-82
2023/02/12 07:31:02;;;;;;;13.30;11.05;;;35.00;55.60;;;;;;1812679;78;21146;-82
2023/02/12 07:33:33;;;;;;;13.62;10.53;;;35.10;55.10;;;;;;1811381;78;21100;-82
2023/02/12 07:36:06;;;;;;;18.42;10.28;;;35.10;53.50;;;;;;1809097;78;21146;-81
2023/02/12 07:38:41;;;;;;;14.28;10.72;;;35.10;52.50;;;;;;1826234;77;21089;-83
2023/02/12 07:41:17;;;;;;;10.40;9.35;;;35.20;52.40;;;;;;1804208;77;21208;-82
2023/02/12 07:43:48;;;;;;;;;;;35.20;51.80;;;;;;1791822;78;21750;-81
2023/02/12 07:46:21;;;;;;;13.65;9.90;;;35.20;52.00;;;;;;1822292;79;20161;-82
2023/02/12 07:48:52;;;;;;;10.28;9.18;;;35.20;52.00;;;;;;1822029;77;21100;-81
2023/02/12 07:51:25;;;;;;;24.95;11.18;;;35.20;52.10;;;;;;1823623;77;21527;-81
2023/02/12 07:53:56;;;;;;;9.70;8.63;;;35.20;52.30;;;;;;1823366;78;21083;-82
2023/02/12 07:56:31;;;;;;;14.33;11.43;;;35.20;51.20;;;;;;1823310;79;21103;-82
2023/02/12 07:59:03;;;;;;;13.45;9.98;;;35.20;52.20;;;;;;1788452;80;21692;-82
2023/02/12 08:01:40;;;;;;;16.07;10.30;;;35.20;52.90;;;;;;1823713;79;21080;-84
2023/02/12 08:04:13;;;;;;;14.55;10.43;;;35.20;52.90;;;;;;1807681;79;21174;-82
2023/02/12 08:06:46;;;;;;;13.05;10.18;;;35.20;53.00;;;;;;1824537;78;21194;-81
2023/02/12 08:09:19;;;;;;;13.68;10.50;;;35.30;53.00;;;;;;1823980;78;21231;-82
2023/02/12 08:11:51;;;;;;;12.80;10.70;;;35.20;52.60;;;;;;1820181;79;21127;-76
2023/02/12 08:14:22;;;;;;;12.10;10.40;;;35.20;52.50;;;;;;1817330;78;21573;-80
2023/02/12 08:16:53;;;;;;;13.40;10.00;;;35.10;52.20;;;;;;1821136;77;21086;-77
2023/02/12 08:19:24;;;;;;;12.10;8.75;;;35.10;52.20;;;;;;1821523;77;21749;-77
2023/02/12 08:21:56;;;;;;;14.73;8.80;;;35.10;52.00;;;;;;1820470;77;21169;-80
2023/02/12 08:24:27;;;;;;;14.30;9.40;;;35.10;51.20;;;;;;1819057;77;21622;-75
2023/02/12 08:26:58;;;;;;;13.13;9.40;;;35.10;52.50;;;;;;1821539;77;21183;-76
2023/02/12 08:29:31;;;;;;;13.95;9.68;;;35.10;51.60;;;;;;1793102;78;21074;-75
2023/02/12 08:32:05;;;;;;;10.68;9.15;;;35.00;51.20;;;;;;1787145;78;21747;-80
2023/02/12 08:34:37;;;;;;;12.33;8.50;;;35.00;51.00;;;;;;1811336;79;21819;-78
2023/02/12 08:37:09;;;;;;;10.75;8.90;;;35.00;50.80;;;;;;1791079;80;21177;-79
2023/02/12 08:39:40;;;;;;;12.95;9.03;;;35.00;51.80;;;;;;1806572;76;21287;-76
2023/02/12 08:42:11;;;;;;;10.58;9.00;;;35.00;51.90;;;;;;1788526;78;21679;-81
2023/02/12 08:44:43;;;;;;;9.63;8.63;;;35.00;51.60;;;;;;1816304;78;21146;-81
2023/02/12 08:47:14;;;;;;;13.70;9.05;;;35.00;51.00;;;;;;1816457;77;21557;-80
2023/02/12 08:49:45;;;;;;;10.72;9.15;;;35.00;51.50;;;;;;1792256;79;21683;-82
2023/02/12 08:52:18;;;;;;;10.82;8.33;;;35.00;51.70;;;;;;1787854;78;21794;-83
2023/02/12 08:54:49;;;;;;;11.90;8.23;;;35.00;51.20;;;;;;1794121;79;21156;-83
2023/02/12 08:57:20;;;;;;;14.07;8.80;;;35.00;50.60;;;;;;1774119;79;21669;-81
2023/02/12 08:59:51;;;;;;;12.90;8.63;;;35.00;50.30;;;;;;1823478;78;21146;-78
2023/02/12 09:02:22;;;;;;;12.80;7.97;;;35.00;51.00;;;;;;1822576;77;21069;-75
2023/02/12 09:04:53;;;;;;;9.08;7.62;;;35.00;49.60;;;;;;1820619;77;21072;-77
2023/02/12 09:07:25;;;;;;;13.78;8.35;;;35.00;49.40;;;;;;1821046;77;21549;-76
2023/02/12 09:09:56;;;;;;;45.43;10.88;;;35.00;50.30;;;;;;1820352;77;21177;-78
2023/02/12 09:12:27;;;;;;;9.25;7.37;;;35.10;48.20;;;;;;1788676;78;21150;-78
2023/02/12 09:14:58;;;;;;;11.80;7.50;;;35.10;48.10;;;;;;1834187;76;21173;-86
2023/02/12 09:17:30;;;;;;;11.00;7.20;;;35.10;48.20;;;;;;1820958;77;21164;-87
2023/02/12 09:20:01;;;;;;;11.18;7.15;;;35.10;48.20;;;;;;1821125;77;21121;-87
2023/02/12 09:22:36;;;;;;;12.93;8.03;;;35.10;49.10;;;;;;1822646;77;21666;-86
2023/02/12 09:25:06;;;;;;;12.25;7.53;;;35.10;49.20;;;;;;1821985;79;21145;-87
2023/02/12 09:27:39;;;;;;;9.90;7.17;;;35.10;49.00;;;;;;1822094;79;21708;-86
2023/02/12 09:30:10;;;;;;;10.58;7.45;;;35.10;47.80;;;;;;1822271;79;21571;-86
2023/02/12 09:32:41;;;;;;;10.40;7.37;;;35.00;49.10;;;;;;1821423;78;21688;-87
2023/02/12 09:35:12;;;;;;;11.45;7.72;;;35.00;48.70;;;;;;1821489;79;21141;-87
2023/02/12 09:37:43;;;;;;;11.45;7.20;;;35.00;48.50;;;;;;1811781;79;21206;-87
2023/02/12 09:40:22;;;;;;;14.33;7.12;;;35.00;49.10;;;;;;1836852;76;21640;-88
2023/02/12 09:42:59;;;;;;;9.60;6.33;;;35.00;49.10;;;;;;1853691;77;21144;-88
2023/02/12 09:45:35;;;;;;;11.35;6.65;;;35.00;47.50;;;;;;1842793;77;21556;-87
2023/02/12 09:48:20;;;;;;;15.23;6.33;;;34.90;45.90;;;;;;1853142;75;21213;-86
2023/02/12 09:50:59;;;;;;;58.10;10.43;;;34.90;47.30;;;;;;1851246;76;21164;-86
2023/02/12 09:53:31;;;;;;;9.75;6.03;;;34.80;46.30;;;;;;1865905;77;21121;-88
2023/02/12 09:56:02;;;;;;;9.98;5.92;;;34.80;47.80;;;;;;1863463;77;21207;-85
2023/02/12 09:58:43;;;;;;;7.95;5.80;;;34.80;46.20;;;;;;1867777;76;21160;-86
2023/02/12 10:01:18;;;;;;;8.88;6.28;;;34.70;46.40;;;;;;1821486;78;21242;-87
2023/02/12 10:03:51;;;;;;;10.88;6.30;;;34.70;46.80;;;;;;1815470;78;21158;-87
2023/02/12 10:06:24;;;;;;;7.67;6.33;;;34.70;47.00;;;;;;1834303;78;21182;-85
2023/02/12 10:09:10;;;;;;;7.33;5.55;;;34.60;47.90;;;;;;1852348;77;21159;-89
2023/02/12 10:12:01;;;;;;;10.30;5.87;;;34.60;48.10;;;;;;1869236;77;21217;-88
2023/02/12 10:14:51;;;;;;;10.90;6.80;;;34.50;48.30;;;;;;1857776;77;21612;-84
2023/02/12 10:17:33;;;;;;;22.95;11.25;;;34.50;48.00;;;;;;1854663;77;21575;-87
2023/02/12 10:20:16;;;;;;;9.78;6.58;;;34.50;47.90;;;;;;1862145;77;21197;-85
2023/02/12 10:23:01;;;;;;;11.28;6.60;;;34.30;48.70;;;;;;1867849;77;21131;-84
2023/02/12 10:25:43;;;;;;;8.35;6.65;;;34.30;48.90;;;;;;1811590;77;21191;-86
2023/02/12 10:28:16;;;;;;;10.38;6.20;;;34.30;49.70;;;;;;1849269;76;21140;-91
2023/02/12 10:30:52;;;;;;;7.00;6.25;;;34.20;50.20;;;;;;1850566;77;21156;-86
2023/02/12 10:33:27;;;;;;;;;;;34.20;50.50;;;;;;1851875;77;21155;-87
2023/02/12 10:36:09;;;;;;;10.72;6.60;;;34.20;52.20;;;;;;1864441;76;20352;-87
2023/02/12 10:38:43;;;;;;;10.50;7.08;;;34.10;51.40;;;;;;1827592;78;21602;-87
2023/02/12 10:41:17;;;;;;;10.88;6.10;;;34.10;51.00;;;;;;1861362;75;21138;-87
2023/02/12 10:43:48;;;;;;;9.18;6.50;;;34.00;50.70;;;;;;1859175;76;21085;-88
2023/02/12 10:46:19;;;;;;;9.55;6.10;;;34.00;51.80;;;;;;1813347;78;21151;-86
2023/02/12 10:52:33;;;;;;;10.98;7.20;;;33.90;52.90;;;;;;1717232;82;21233;-86
2023/02/12 10:55:07;;;;;;;13.62;8.00;;;33.80;52.40;;;;;;1825138;78;21152;-87
2023/02/12 10:57:39;;;;;;;10.72;7.65;;;33.80;52.50;;;;;;1826547;77;21159;-86
2023/02/12 11:00:22;;;;;;;14.63;7.20;;;33.70;52.40;;;;;;1846417;78;21747;-85
2023/02/12 11:03:08;;;;;;;10.38;7.40;;;33.70;53.00;;;;;;1844227;78;21196;-87
2023/02/12 11:05:41;;;;;;;10.08;7.20;;;33.60;52.40;;;;;;1844318;77;21194;-88
2023/02/12 11:08:34;;;;;;;13.70;7.42;;;33.50;53.30;;;;;;1846314;78;21771;-86
2023/02/12 11:11:15;;;;;;;12.33;7.72;;;33.50;53.00;;;;;;1843613;78;21213;-87
2023/02/12 11:13:54;;;;;;;13.35;7.60;;;33.50;54.10;;;;;;1846032;78;21171;-87
2023/02/12 11:16:30;;;;;;;10.28;7.15;;;33.40;52.90;;;;;;1845375;78;21131;-87
2023/02/12 11:19:06;;;;;;;10.88;7.80;;;33.40;52.90;;;;;;1844523;78;21147;-86
2023/02/12 11:21:37;;;;;;;10.93;7.55;;;33.40;52.60;;;;;;1846336;78;21156;-87
2023/02/12 11:24:33;;;;;;;11.95;8.38;;;33.30;52.60;;;;;;1844945;78;21626;-87
2023/02/12 11:27:13;;;;;;;;;;;33.30;52.50;;;;;;1846122;78;21268;-87
2023/02/12 11:29:47;;;;;;;9.93;7.95;;;33.30;53.70;;;;;;1845271;78;20198;-87
2023/02/12 12:41:46;;;;;;;14.40;11.97;;;32.50;55.40;;;;;;1559386;91;22207;-88
2023/02/12 12:47:54;;;;;;;17.30;12.00;;;32.50;55.50;;;;;;1472337;96;21266;-86
2023/02/12 12:50:49;;;;;;;15.90;11.35;;;32.50;55.30;;;;;;1499498;94;21287;-87
2023/02/12 12:53:58;;;;;;;17.12;11.95;;;32.40;55.20;;;;;;1934677;73;22107;-87
2023/02/12 13:00:55;;;;;;;18.82;12.75;;;32.40;55.60;;;;;;1795678;79;21442;-88
2023/02/12 13:04:32;;;;;;;;;;;;;;;;;;;;;
2023/02/12 13:10:26;;;;;;;17.57;13.08;;;32.30;56.30;;;;;;1714074;82;21132;-86
2023/02/12 13:17:31;;;;;;;23.45;13.43;;;32.20;56.80;;;;;;1608938;87;21673;-86
2023/02/12 13:23:43;;;;;;;19.75;13.50;;;32.10;57.30;;;;;;1918893;74;21544;-86
2023/02/12 13:26:29;;;;;;;17.90;13.40;;;32.10;57.50;;;;;;1892673;75;21285;-85
2023/02/12 13:29:37;;;;;;;21.70;12.68;;;32.10;57.60;;;;;;1906633;75;21402;-86
2023/02/12 13:32:25;;;;;;;19.87;13.38;;;32.10;57.70;;;;;;1900940;75;21182;-86
2023/02/12 13:35:48;;;;;;;;;;;;;;;;;;;;;
2023/02/12 13:38:42;;;;;;;;;;;;;;;;;;;;;
2023/02/12 13:42:12;;;;;;;17.55;13.43;;;31.90;58.10;;;;;;1854413;76;21177;-87
2023/02/12 13:51:46;;;;;;;18.50;12.98;;;31.90;57.90;;;;;;1827534;78;21220;-86
2023/02/12 13:54:41;;;;;;;18.95;12.93;;;31.80;58.10;;;;;;1842504;76;21254;-86
2023/02/12 13:57:18;;;;;;;18.48;12.90;;;31.80;58.20;;;;;;1884083;76;21201;-88
2023/02/12 13:59:52;;;;;;;19.25;12.23;;;31.80;58.20;;;;;;1879741;76;21135;-87
2023/02/12 14:02:50;;;;;;;17.23;13.18;;;31.70;58.20;;;;;;1887576;75;21112;-87
2023/02/12 14:05:25;;;;;;;20.52;13.28;;;31.80;58.20;;;;;;1888676;75;21189;-87
2023/02/12 14:08:04;;;;;;;19.90;14.33;;;31.70;58.10;;;;;;1884508;75;21127;-85
2023/02/12 14:10:39;;;;;;;21.68;14.83;;;31.70;58.10;;;;;;1831226;78;21159;-86
2023/02/12 14:13:26;;;;;;;22.42;14.38;;;31.70;58.20;;;;;;1880940;76;21144;-85
2023/02/12 14:15:57;;;;;;;21.07;14.03;;;31.70;58.30;;;;;;1877231;76;21162;-87
2023/02/12 14:28:02;;;;;;;20.60;15.90;;;31.60;58.60;;;;;;1595855;86;21224;-85
2023/02/12 14:30:40;;;;;;;22.48;15.15;;;31.50;58.60;;;;;;1719807;81;21214;-86
2023/02/12 14:33:24;;;;;;;23.30;16.25;;;31.50;58.90;;;;;;1783460;79;21216;-85
2023/02/12 14:36:14;;;;;;;23.35;15.45;;;31.50;59.60;;;;;;1801085;77;21247;-86
2023/02/12 14:38:47;;;;;;;23.85;15.63;;;31.50;59.50;;;;;;1809460;79;21293;-85
2023/02/12 14:41:40;;;;;;;26.48;16.90;;;31.50;59.90;;;;;;1810430;78;22000;-85
2023/02/12 14:44:29;;;;;;;20.55;15.85;;;31.40;60.00;;;;;;1810695;79;21226;-86
2023/02/12 14:47:11;;;;;;;23.52;17.35;;;31.40;60.30;;;;;;1802432;79;21266;-85
2023/02/12 14:49:47;;;;;;;28.15;17.12;;;31.30;60.20;;;;;;1807670;79;21801;-86
2023/02/12 14:52:21;;;;;;;25.77;18.27;;;31.30;60.60;;;;;;1797853;79;21182;-86
2023/02/12 14:55:04;;;;;;;26.42;17.95;;;31.30;61.20;;;;;;1805554;79;21729;-86
2023/02/12 14:57:42;;;;;;;25.40;18.55;;;31.20;61.20;;;;;;1811886;79;21671;-86
2023/02/12 15:00:16;;;;;;;26.15;18.27;;;31.20;61.30;;;;;;1804404;78;21542;-85
2023/02/12 15:03:06;;;;;;;25.40;19.70;;;31.10;61.40;;;;;;1847567;76;21224;-85
2023/02/12 15:05:51;;;;;;;29.50;19.77;;;31.10;61.40;;;;;;1851761;76;21166;-86
2023/02/12 15:08:41;;;;;;;24.25;18.50;;;31.10;61.50;;;;;;1874834;76;21155;-85
2023/02/12 15:11:37;;;;;;;23.85;19.17;;;31.00;61.90;;;;;;1881472;76;21433;-86
2023/02/12 15:14:21;;;;;;;34.03;19.85;;;31.00;62.20;;;;;;1882217;76;21127;-86
2023/02/12 15:17:08;;;;;;;24.43;18.90;;;31.00;62.00;;;;;;1843030;77;21594;-85